createdAt,value
2023-04-19T00:01:24.990Z,7.67
2023-04-19T00:03:51.679Z,7.61
2023-04-19T00:06:18.345Z,7.70
2023-04-19T00:08:44.959Z,7.82
2023-04-19T00:11:11.362Z,7.64
2023-04-19T00:13:37.928Z,7.64
2023-04-19T00:16:05.757Z,7.57
2023-04-19T00:18:32.217Z,7.69
2023-04-19T00:20:58.637Z,7.58
2023-04-19T00:23:25.901Z,7.44
2023-04-19T00:25:52.350Z,7.42
2023-04-19T00:28:18.989Z,7.61
2023-04-19T00:30:45.434Z,7.58
2023-04-19T00:33:15.014Z,7.73
2023-04-19T00:35:42.236Z,7.71
2023-04-19T00:38:08.895Z,7.61
2023-04-19T00:40:37.398Z,7.64
2023-04-19T00:43:05.073Z,7.59
2023-04-19T00:45:33.152Z,7.56
2023-04-19T00:48:01.335Z,7.57
2023-04-19T00:50:28.637Z,7.56
2023-04-19T00:52:57.344Z,7.53
2023-04-19T00:55:25.122Z,7.48
2023-04-19T00:57:52.270Z,7.46
2023-04-19T01:00:19.915Z,7.55
2023-04-19T01:02:47.884Z,7.49
2023-04-19T01:05:14.988Z,7.42
2023-04-19T01:07:42.825Z,7.40
2023-04-19T01:10:09.906Z,7.53
2023-04-19T01:12:36.573Z,7.49
2023-04-19T01:15:03.708Z,7.50
2023-04-19T01:17:32.130Z,7.35
2023-04-19T01:20:08.197Z,7.49
2023-04-19T01:22:37.591Z,7.50
2023-04-19T01:25:05.143Z,7.41
2023-04-19T01:27:31.731Z,7.43
2023-04-19T01:29:58.338Z,7.41
2023-04-19T01:32:26.890Z,7.38
2023-04-19T01:34:55.723Z,7.39
2023-04-19T01:37:22.296Z,7.39
2023-04-19T01:39:48.820Z,7.25
2023-04-19T01:42:15.320Z,7.22
2023-04-19T01:44:41.904Z,7.47
2023-04-19T01:47:08.488Z,7.22
2023-04-19T01:49:35.060Z,7.36
2023-04-19T01:52:01.501Z,7.33
2023-04-19T01:54:28.050Z,7.44
2023-04-19T01:56:54.525Z,7.23
2023-04-19T01:59:20.980Z,7.31
2023-04-19T02:01:47.687Z,6.99
2023-04-19T02:04:14.491Z,7.34
2023-04-19T02:06:41.231Z,7.30
2023-04-19T02:09:08.284Z,7.30
2023-04-19T02:11:34.805Z,7.27
2023-04-19T02:14:01.327Z,7.29
2023-04-19T02:16:27.923Z,7.36
2023-04-19T02:18:54.468Z,7.34
2023-04-19T02:21:20.938Z,7.35
2023-04-19T02:23:47.508Z,7.39
2023-04-19T02:26:14.105Z,7.33
2023-04-19T02:28:42.981Z,7.37
2023-04-19T02:31:09.473Z,7.45
2023-04-19T02:33:36.324Z,7.33
2023-04-19T02:36:03.262Z,7.28
2023-04-19T02:38:29.813Z,7.17
2023-04-19T02:40:56.275Z,7.29
2023-04-19T02:43:22.879Z,7.28
2023-04-19T02:45:51.312Z,7.36
2023-04-19T02:48:17.864Z,7.35
2023-04-19T02:50:44.494Z,7.29
2023-04-19T02:53:11.075Z,7.23
2023-04-19T02:55:38.293Z,7.21
2023-04-19T02:58:09.229Z,6.94
2023-04-19T03:00:42.292Z,7.17
2023-04-19T03:03:12.369Z,7.00
2023-04-19T03:05:38.868Z,7.17
2023-04-19T03:08:05.493Z,6.96
2023-04-19T03:10:32.022Z,7.13
2023-04-19T03:12:58.538Z,7.08
2023-04-19T03:15:25.272Z,6.99
2023-04-19T03:17:52.469Z,7.13
2023-04-19T03:20:21.331Z,7.22
2023-04-19T03:22:48.139Z,7.11
2023-04-19T03:25:15.020Z,6.92
2023-04-19T03:27:45.630Z,7.01
2023-04-19T03:30:14.409Z,7.03
2023-04-19T03:32:43.302Z,7.11
2023-04-19T03:35:11.809Z,7.07
2023-04-19T03:37:38.527Z,7.13
2023-04-19T03:40:05.909Z,7.17
2023-04-19T03:42:33.967Z,7.10
2023-04-19T03:45:11.367Z,7.01
2023-04-19T03:47:46.007Z,7.07
2023-04-19T03:50:12.949Z,7.11
2023-04-19T03:52:42.980Z,6.97
2023-04-19T03:55:12.550Z,6.90
2023-04-19T03:57:40.347Z,7.03
2023-04-19T04:00:16.591Z,6.95
2023-04-19T04:02:43.352Z,7.06
2023-04-19T04:05:12.566Z,7.09
2023-04-19T04:07:40.520Z,7.07
2023-04-19T04:10:07.780Z,7.10
2023-04-19T04:12:39.967Z,7.15
2023-04-19T04:15:09.027Z,6.99
2023-04-19T04:17:40.221Z,7.05
2023-04-19T04:20:08.666Z,7.12
2023-04-19T04:22:35.918Z,7.10
2023-04-19T04:25:02.473Z,7.08
2023-04-19T04:27:34.794Z,7.05
2023-04-19T04:30:02.057Z,7.00
2023-04-19T04:32:30.177Z,6.95
2023-04-19T04:35:00.590Z,7.04
2023-04-19T04:37:40.179Z,7.03
2023-04-19T04:40:08.118Z,7.06
2023-04-19T04:42:35.621Z,7.04
2023-04-19T04:45:02.299Z,6.98
2023-04-19T04:47:33.490Z,7.07
2023-04-19T04:50:06.903Z,7.08
2023-04-19T04:52:34.002Z,7.04
2023-04-19T04:55:13.428Z,7.08
2023-04-19T04:57:43.284Z,7.05
2023-04-19T05:00:17.860Z,7.12
2023-04-19T05:03:00.072Z,7.12
2023-04-19T05:05:28.204Z,7.04
2023-04-19T05:07:55.558Z,7.13
2023-04-19T05:10:22.458Z,6.91
2023-04-19T05:12:50.195Z,6.99
2023-04-19T05:15:16.748Z,7.08
2023-04-19T05:17:48.486Z,6.99
2023-04-19T05:20:16.146Z,7.03
2023-04-19T05:22:43.514Z,7.17
2023-04-19T05:25:11.798Z,7.19
2023-04-19T05:27:39.247Z,7.19
2023-04-19T05:30:06.896Z,7.16
2023-04-19T05:32:35.475Z,7.21
2023-04-19T05:35:04.597Z,7.03
2023-04-19T05:37:31.167Z,7.23
2023-04-19T05:39:58.270Z,7.05
2023-04-19T05:42:25.321Z,7.23
2023-04-19T05:44:51.862Z,7.08
2023-04-19T05:47:18.853Z,7.22
2023-04-19T05:50:21.225Z,7.23
2023-04-19T05:53:03.992Z,7.19
2023-04-19T05:55:31.022Z,7.18
2023-04-19T05:57:58.797Z,7.20
2023-04-19T06:00:28.261Z,7.28
2023-04-19T06:03:01.534Z,7.24
2023-04-19T06:05:28.186Z,7.23
2023-04-19T06:08:02.907Z,7.19
2023-04-19T06:10:37.520Z,7.37
2023-04-19T06:13:15.963Z,7.29
2023-04-19T06:15:42.752Z,7.30
2023-04-19T06:18:11.013Z,7.30
2023-04-19T06:20:47.513Z,7.32
2023-04-19T06:23:14.912Z,7.30
2023-04-19T06:25:41.644Z,7.23
2023-04-19T06:28:08.146Z,7.04
2023-04-19T06:30:34.604Z,7.22
2023-04-19T06:33:01.150Z,6.84
2023-04-19T06:35:27.712Z,7.19
2023-04-19T06:37:54.196Z,7.19
2023-04-19T06:40:20.911Z,7.23
2023-04-19T06:42:47.459Z,6.97
2023-04-19T06:45:15.124Z,7.24
2023-04-19T06:47:41.838Z,7.27
2023-04-19T06:50:08.925Z,7.39
2023-04-19T06:52:35.391Z,7.39
2023-04-19T06:55:01.892Z,6.96
2023-04-19T06:57:28.331Z,7.26
2023-04-19T06:59:55.645Z,7.41
2023-04-19T07:02:22.206Z,7.36
2023-04-19T07:04:48.987Z,7.32
2023-04-19T07:07:15.632Z,7.32
2023-04-19T07:09:42.216Z,7.00
2023-04-19T07:12:08.847Z,7.51
2023-04-19T07:14:35.306Z,7.19
2023-04-19T07:17:03.704Z,7.25
2023-04-19T07:19:31.353Z,7.54
2023-04-19T07:21:57.924Z,7.15
2023-04-19T07:24:29.655Z,7.58
2023-04-19T07:26:56.430Z,7.49
2023-04-19T07:29:23.076Z,7.69
2023-04-19T07:31:49.650Z,7.63
2023-04-19T07:34:16.277Z,7.56
2023-04-19T07:36:42.840Z,7.70
2023-04-19T07:39:09.377Z,7.73
2023-04-19T07:41:36.413Z,7.78
2023-04-19T07:44:03.289Z,7.86
2023-04-19T07:46:30.875Z,7.89
2023-04-19T07:48:57.413Z,7.91
2023-04-19T07:51:24.709Z,8.08
2023-04-19T07:53:51.227Z,8.20
2023-04-19T07:56:20.102Z,8.16
2023-04-19T07:58:50.817Z,8.25
2023-04-19T08:01:23.597Z,8.33
2023-04-19T08:03:50.400Z,8.28
2023-04-19T08:06:18.003Z,8.38
2023-04-19T08:08:44.473Z,8.51
2023-04-19T08:11:10.968Z,8.40
2023-04-19T08:13:37.880Z,8.37
2023-04-19T08:18:36.010Z,8.55
2023-04-19T08:21:02.906Z,8.63
2023-04-19T08:23:34.978Z,8.46
2023-04-19T08:26:08.158Z,8.56
2023-04-19T08:28:34.583Z,8.77
2023-04-19T08:31:01.080Z,8.31
2023-04-19T08:33:28.915Z,8.91
2023-04-19T08:35:55.480Z,8.57
2023-04-19T08:38:21.950Z,8.97
2023-04-19T08:40:55.251Z,9.02
2023-04-19T08:43:23.782Z,9.06
2023-04-19T08:45:51.010Z,9.08
2023-04-19T08:48:18.447Z,8.80
2023-04-19T08:51:04.282Z,9.06
2023-04-19T08:53:34.147Z,8.86
2023-04-19T09:01:04.876Z,8.81
2023-04-19T09:03:38.593Z,8.84
2023-04-19T09:06:14.485Z,9.26
2023-04-19T09:08:41.921Z,9.34
2023-04-19T09:11:09.111Z,9.35
2023-04-19T09:13:38.314Z,9.44
2023-04-19T09:16:07.774Z,8.95
2023-04-19T09:19:02.526Z,9.42
2023-04-19T09:21:39.382Z,9.51
2023-04-19T09:24:06.420Z,9.22
2023-04-19T09:26:33.725Z,9.52
2023-04-19T09:29:02.465Z,9.45
2023-04-19T09:31:50.191Z,9.59
2023-04-19T09:34:19.197Z,9.75
2023-04-19T09:36:46.870Z,9.85
2023-04-19T09:39:14.606Z,9.91
2023-04-19T09:41:54.564Z,10.17
2023-04-19T09:46:53.923Z,10.24
2023-04-19T09:49:41.235Z,10.13
2023-04-19T09:52:14.158Z,10.01
2023-04-19T09:54:41.729Z,10.07
2023-04-19T09:57:08.456Z,9.84
2023-04-19T09:59:35.147Z,9.95
2023-04-19T10:02:02.849Z,9.99
2023-04-19T10:04:47.826Z,10.04
2023-04-19T10:07:29.338Z,10.16
2023-04-19T10:10:08.140Z,10.22
2023-04-19T10:13:07.509Z,10.02
2023-04-19T10:15:49.376Z,10.17
2023-04-19T10:18:18.173Z,10.19
2023-04-19T10:21:00.921Z,10.17
2023-04-19T10:23:31.362Z,10.12
2023-04-19T10:25:58.508Z,9.99
2023-04-19T10:28:27.985Z,9.95
2023-04-19T10:31:02.883Z,9.48
2023-04-19T10:33:40.583Z,9.81
2023-04-19T10:36:14.069Z,9.67
2023-04-19T10:38:47.265Z,9.71
2023-04-19T10:41:17.580Z,9.63
2023-04-19T10:43:58.072Z,9.73
2023-04-19T10:46:26.040Z,9.76
2023-04-19T10:49:00.626Z,9.66
2023-04-19T10:51:28.993Z,9.69
2023-04-19T10:54:00.494Z,9.48
2023-04-19T10:56:36.080Z,9.70
2023-04-19T10:59:02.822Z,9.81
2023-04-19T11:01:47.094Z,9.88
2023-04-19T11:04:43.868Z,9.99
2023-04-19T11:07:10.836Z,9.88
2023-04-19T11:09:45.521Z,10.00
2023-04-19T11:12:16.555Z,10.04
2023-04-19T11:14:47.720Z,9.91
2023-04-19T11:17:16.556Z,9.51
2023-04-19T11:19:53.630Z,9.65
2023-04-19T11:22:34.606Z,10.03
2023-04-19T11:25:12.278Z,9.85
2023-04-19T11:27:43.983Z,9.79
2023-04-19T11:30:16.692Z,9.94
2023-04-19T11:32:48.661Z,9.82
2023-04-19T11:35:18.253Z,9.48
2023-04-19T11:37:44.705Z,9.63
2023-04-19T11:40:16.026Z,9.60
2023-04-19T11:42:42.770Z,9.52
2023-04-19T11:47:53.063Z,9.35
2023-04-19T11:50:41.049Z,9.23
2023-04-19T11:53:18.258Z,9.18
2023-04-19T11:55:47.345Z,9.02
2023-04-19T11:58:36.165Z,9.13
2023-04-19T12:01:10.720Z,9.01
2023-04-19T12:03:58.921Z,8.87
2023-04-19T12:06:28.194Z,8.92
2023-04-19T12:08:56.591Z,8.87
2023-04-19T12:11:26.360Z,8.95
2023-04-19T12:14:13.581Z,8.88
2023-04-19T12:16:40.912Z,8.79
2023-04-19T12:19:25.608Z,8.76
2023-04-19T12:21:52.121Z,8.75
2023-04-19T12:24:18.681Z,8.86
2023-04-19T12:26:57.399Z,8.84
2023-04-19T12:29:24.371Z,8.80
2023-04-19T12:31:51.168Z,8.75
2023-04-19T12:34:17.746Z,8.62
2023-04-19T12:36:44.314Z,8.50
2023-04-19T12:39:10.930Z,8.60
2023-04-19T12:41:37.491Z,8.56
2023-04-19T12:44:04.143Z,8.53
2023-04-19T12:46:30.883Z,8.57
2023-04-19T12:48:57.486Z,8.48
2023-04-19T12:51:23.986Z,8.40
2023-04-19T12:53:52.575Z,8.36
2023-04-19T12:56:19.438Z,8.40
2023-04-19T12:58:46.569Z,8.33
2023-04-19T13:01:13.621Z,8.37
2023-04-19T13:03:40.550Z,8.37
2023-04-19T13:06:07.268Z,8.46
2023-04-19T13:08:41.414Z,8.40
2023-04-19T13:11:11.143Z,8.30
2023-04-19T13:13:37.633Z,8.25
2023-04-19T13:16:04.417Z,8.18
2023-04-19T13:18:31.047Z,8.20
2023-04-19T13:20:57.856Z,8.20
2023-04-19T13:23:24.401Z,8.18
2023-04-19T13:25:50.923Z,8.21
2023-04-19T13:28:17.397Z,8.16
2023-04-19T13:30:43.912Z,8.32
2023-04-19T13:33:10.515Z,8.23
2023-04-19T13:35:37.020Z,8.27
2023-04-19T13:38:03.469Z,8.20
2023-04-19T13:40:29.978Z,8.20
2023-04-19T13:42:56.782Z,8.26
2023-04-19T13:45:24.415Z,8.19
2023-04-19T13:47:50.942Z,8.18
2023-04-19T13:50:17.520Z,8.23
2023-04-19T13:52:44.051Z,8.09
2023-04-19T13:55:10.630Z,8.16
2023-04-19T13:57:37.284Z,8.12
2023-04-19T14:00:04.532Z,8.17
2023-04-19T14:02:34.347Z,8.03
2023-04-19T14:05:01.015Z,7.86
2023-04-19T14:07:27.531Z,7.80
2023-04-19T14:09:54.070Z,7.70
2023-04-19T14:12:20.629Z,7.66
2023-04-19T14:14:47.431Z,7.50
2023-04-19T14:17:14.015Z,7.43
2023-04-19T14:19:40.512Z,7.44
2023-04-19T14:22:07.258Z,7.46
2023-04-19T14:24:33.806Z,7.24
2023-04-19T14:27:10.468Z,7.31
2023-04-19T14:29:37.866Z,7.18
2023-04-19T14:32:20.810Z,7.04
2023-04-19T14:34:51.473Z,7.03
2023-04-19T14:37:18.707Z,7.00
2023-04-19T14:39:46.185Z,7.02
2023-04-19T14:42:12.773Z,6.92
2023-04-19T14:44:40.426Z,6.69
2023-04-19T14:47:07.580Z,6.62
2023-04-19T14:49:34.382Z,6.58
2023-04-19T14:52:01.158Z,6.45
2023-04-19T14:54:27.809Z,6.39
2023-04-19T14:56:54.341Z,6.35
2023-04-19T14:59:21.015Z,6.30
2023-04-19T15:01:47.666Z,6.30
2023-04-19T15:04:14.516Z,6.25
2023-04-19T15:06:41.385Z,6.11
2023-04-19T15:09:07.951Z,6.19
2023-04-19T15:11:34.441Z,5.92
2023-04-19T15:14:00.993Z,5.82
2023-04-19T15:16:27.634Z,5.74
2023-04-19T15:18:54.320Z,5.69
2023-04-19T15:21:24.419Z,5.69
2023-04-19T15:23:51.350Z,5.71
2023-04-19T15:26:17.917Z,5.74
2023-04-19T15:28:44.439Z,5.61
2023-04-19T15:31:11.119Z,5.65
2023-04-19T15:33:37.878Z,5.74
2023-04-19T15:36:05.053Z,5.64
2023-04-19T15:38:31.842Z,5.61
2023-04-19T15:40:59.095Z,5.60
2023-04-19T15:43:26.076Z,5.62
2023-04-19T15:45:52.978Z,5.47
2023-04-19T15:48:20.836Z,5.44
2023-04-19T15:50:47.565Z,5.37
2023-04-19T15:53:14.140Z,5.50
2023-04-19T15:55:41.518Z,5.50
2023-04-19T15:58:08.457Z,5.48
2023-04-19T16:00:35.092Z,5.37
2023-04-19T16:03:02.005Z,5.51
2023-04-19T16:05:29.207Z,5.44
2023-04-19T16:08:06.955Z,5.53
2023-04-19T16:10:33.819Z,5.58
2023-04-19T16:13:00.918Z,5.61
2023-04-19T16:15:28.523Z,5.60
2023-04-19T16:17:55.491Z,5.56
2023-04-19T16:20:22.101Z,5.48
2023-04-19T16:22:48.734Z,5.40
2023-04-19T16:25:16.566Z,5.54
2023-04-19T16:27:46.634Z,5.56
2023-04-19T16:30:14.807Z,5.57
2023-04-19T16:32:41.847Z,5.47
2023-04-19T16:35:09.482Z,5.44
2023-04-19T16:37:36.147Z,5.32
2023-04-19T16:40:09.761Z,5.36
2023-04-19T16:42:37.676Z,5.38
2023-04-19T16:45:04.850Z,5.44
2023-04-19T16:47:31.784Z,5.28
2023-04-19T16:49:59.352Z,5.21
2023-04-19T16:52:27.077Z,5.14
2023-04-19T16:54:54.333Z,5.15
2023-04-19T16:57:21.450Z,5.05
2023-04-19T16:59:48.107Z,5.19
2023-04-19T17:02:14.870Z,5.20
2023-04-19T17:04:41.757Z,5.14
2023-04-19T17:07:08.841Z,5.19
2023-04-19T17:09:36.131Z,5.04
2023-04-19T17:12:03.174Z,5.21
2023-04-19T17:14:30.139Z,5.02
2023-04-19T17:16:57.137Z,5.07
2023-04-19T17:19:23.715Z,5.00
2023-04-19T17:21:50.378Z,5.05
2023-04-19T17:24:18.067Z,4.98
2023-04-19T17:26:44.609Z,4.97
2023-04-19T17:29:11.281Z,4.96
2023-04-19T17:34:04.317Z,4.91
2023-04-19T17:36:31.878Z,4.86
2023-04-19T17:38:58.431Z,4.83
2023-04-19T17:41:25.264Z,4.95
2023-04-19T17:43:52.052Z,4.92
2023-04-19T17:46:19.224Z,4.97
2023-04-19T17:48:46.166Z,4.95
2023-04-19T17:51:12.670Z,4.86
2023-04-19T17:53:39.217Z,4.76
2023-04-19T17:56:06.060Z,4.71
2023-04-19T17:58:32.573Z,4.92
2023-04-19T18:00:59.242Z,4.78
2023-04-19T18:03:26.006Z,4.75
2023-04-19T18:05:53.025Z,4.78
2023-04-19T18:08:19.580Z,4.90
2023-04-19T18:10:46.103Z,4.89
2023-04-19T18:13:12.830Z,4.92
2023-04-19T18:15:39.386Z,4.98
2023-04-19T18:21:54.010Z,4.92
2023-04-19T18:24:20.605Z,4.86
2023-04-19T18:31:00.896Z,4.69
2023-04-19T18:33:27.618Z,4.63
2023-04-19T18:35:54.204Z,4.64
2023-04-19T18:38:21.196Z,4.57
2023-04-19T18:40:47.947Z,4.83
2023-04-19T18:43:15.527Z,4.72
2023-04-19T18:45:42.122Z,4.87
2023-04-19T18:48:08.879Z,4.84
2023-04-19T18:50:36.828Z,4.71
2023-04-19T18:53:03.454Z,4.75
2023-04-19T18:55:31.090Z,4.72
2023-04-19T18:57:57.605Z,4.81
2023-04-19T19:00:25.094Z,4.74
2023-04-19T19:02:52.891Z,4.67
2023-04-19T19:05:19.962Z,4.76
2023-04-19T19:07:47.268Z,4.66
2023-04-19T19:10:19.256Z,4.70
2023-04-19T19:12:48.978Z,4.80
2023-04-19T19:15:15.854Z,4.64
2023-04-19T19:17:43.225Z,4.64
2023-04-19T19:20:10.241Z,4.71
2023-04-19T19:22:36.756Z,4.68
2023-04-19T19:25:03.723Z,4.68
2023-04-19T19:27:30.318Z,4.57
2023-04-19T19:29:58.668Z,4.55
2023-04-19T19:32:26.656Z,4.58
2023-04-19T19:35:00.475Z,4.49
2023-04-19T19:37:29.223Z,4.44
2023-04-19T19:39:56.710Z,4.50
2023-04-19T19:42:23.892Z,4.49
2023-04-19T19:44:55.268Z,4.53
2023-04-19T19:47:23.447Z,4.47
2023-04-19T19:50:31.586Z,4.50
2023-04-19T19:52:37.064Z,4.54
2023-04-19T19:55:03.859Z,4.49
2023-04-19T19:58:19.075Z,4.46
2023-04-19T20:00:39.857Z,4.39
2023-04-19T20:03:06.487Z,4.31
2023-04-19T20:05:33.856Z,4.55
2023-04-19T20:08:12.494Z,4.53
2023-04-19T20:10:41.654Z,4.35
2023-04-19T20:13:09.079Z,4.44
2023-04-19T20:15:37.644Z,4.34
2023-04-19T20:18:05.062Z,4.27
2023-04-19T20:20:31.746Z,4.20
2023-04-19T20:22:58.350Z,4.19
2023-04-19T20:25:25.279Z,4.19
2023-04-19T20:27:52.017Z,4.15
2023-04-19T20:30:18.539Z,4.12
2023-04-19T20:32:45.368Z,4.10
2023-04-19T20:35:12.475Z,4.18
2023-04-19T20:37:42.037Z,4.11
2023-04-19T20:40:12.179Z,4.10
2023-04-19T20:42:38.898Z,4.15
2023-04-19T20:45:07.017Z,4.14
2023-04-19T20:47:33.764Z,4.08
2023-04-19T20:50:00.493Z,4.06
2023-04-19T20:52:27.088Z,4.04
2023-04-19T20:54:55.557Z,4.06
2023-04-19T20:57:22.104Z,4.07
2023-04-19T20:59:49.141Z,3.95
2023-04-19T21:02:15.923Z,3.92
2023-04-19T21:04:43.569Z,3.89
2023-04-19T21:07:10.864Z,3.89
2023-04-19T21:09:37.792Z,3.88
2023-04-19T21:12:04.830Z,3.91
2023-04-19T21:14:33.578Z,3.95
2023-04-19T21:17:01.526Z,3.98
2023-04-19T21:19:28.091Z,4.10
2023-04-19T21:21:54.867Z,4.07
2023-04-19T21:24:21.399Z,4.08
2023-04-19T21:26:47.942Z,4.05
2023-04-19T21:29:14.626Z,3.98
2023-04-19T21:31:41.499Z,3.89
2023-04-19T21:34:08.421Z,4.01
2023-04-19T21:36:35.060Z,4.12
2023-04-19T21:39:01.775Z,4.13
2023-04-19T21:41:28.294Z,3.86
2023-04-19T21:43:54.853Z,3.91
2023-04-19T21:46:21.428Z,4.08
2023-04-19T21:48:47.959Z,4.02
2023-04-19T21:51:14.536Z,3.87
2023-04-19T21:53:41.113Z,3.82
2023-04-19T21:56:08.527Z,3.80
2023-04-19T21:58:35.070Z,3.76
2023-04-19T22:01:01.572Z,3.90
2023-04-19T22:03:28.417Z,3.85
2023-04-19T22:05:55.184Z,3.96
2023-04-19T22:08:22.333Z,4.12
2023-04-19T22:10:50.530Z,3.96
2023-04-19T22:13:17.607Z,3.98
2023-04-19T22:15:44.177Z,3.89
2023-04-19T22:18:10.771Z,3.87
2023-04-19T22:20:38.339Z,3.89
2023-04-19T22:23:04.960Z,3.92
2023-04-19T22:25:31.516Z,3.95
2023-04-19T22:27:58.125Z,3.88
2023-04-19T22:30:24.653Z,3.89
2023-04-19T22:32:51.228Z,3.76
2023-04-19T22:35:18.717Z,3.93
2023-04-19T22:37:46.562Z,3.90
2023-04-19T22:40:13.787Z,3.90
2023-04-19T22:42:40.417Z,3.86
2023-04-19T22:45:08.040Z,3.84
2023-04-19T22:47:34.558Z,3.81
2023-04-19T22:50:01.258Z,3.73
2023-04-19T22:52:27.849Z,3.82
2023-04-19T22:54:54.504Z,3.73
2023-04-19T22:57:21.030Z,3.89
2023-04-19T22:59:47.534Z,3.69
2023-04-19T23:02:14.091Z,3.87
2023-04-19T23:04:40.951Z,3.96
2023-04-19T23:07:08.201Z,4.00
2023-04-19T23:09:34.716Z,4.02
2023-04-19T23:12:01.255Z,4.03
2023-04-19T23:14:29.154Z,4.12
2023-04-19T23:16:55.740Z,4.03
2023-04-19T23:19:22.847Z,4.04
2023-04-19T23:21:52.571Z,3.97
2023-04-19T23:24:19.372Z,3.86
2023-04-19T23:26:45.994Z,3.93
2023-04-19T23:29:12.722Z,3.99
2023-04-19T23:31:39.467Z,3.97
2023-04-19T23:34:06.106Z,4.01
2023-04-19T23:36:32.619Z,4.01
2023-04-19T23:38:59.151Z,4.04
2023-04-19T23:41:25.735Z,3.93
2023-04-19T23:43:52.270Z,3.63
2023-04-19T23:46:18.827Z,3.59
2023-04-19T23:48:45.619Z,3.89
2023-04-19T23:51:12.860Z,3.85
2023-04-19T23:53:40.455Z,3.83
2023-04-19T23:56:07.317Z,3.84
2023-04-19T23:58:33.805Z,3.75
